首页
METAR-TAF:

METAR-TAF

机场 :

科威特, 科威特

科威特國際機場

纬度: 29-13N, 经度: 047-59E, 海拔: 55米

当前天气观测

该预报发布于20分钟前的03:00 UTC
风速10节,风向西北
温度 16°C
湿度 31%
气压 1018 hPa
能見度: 0500

METAR: OKBK 200300Z 32010KT 0500 R33L/M0025N R33R/P1500N HZ NSC 16/M01 Q1018 NOSIG

时间: 06:20 (03:20 UTC)

预报

该预报发布于4小时和35分钟前的22:45 UTC
预报有效从20日的 00点(UTC)到 21日的 06点(UTC)
风速12节,风向北转西北,有时为25节阵风
能見度: 2000
高吹尘
短暂存在
从 20日的 00点(UTC)到 20日的 04点(UTC)
能見度: 0500

TAF: OKBK 192245Z 2000/2106 34012G25KT 2000 BLDU NSC TEMPO 2000/2004 0500 DS

超过4000个机场的气象观测和天气预报(METAR&TAF报告)。

可查询的气象台以黄色和红色小点在地图上表示。

将鼠标移到小点上方,可查看气象台名称。

然后点击查看天气观测和预报。

如需切换地图:点击带黑十字的绿色按钮放大地图;点击带横线的绿色按钮缩小地图;或者点击绿色箭头查看邻近地区的地图。


METAR-TAF: